createdAt,value
2022-10-19T00:01:36.609Z,13.90
2022-10-19T00:06:41.275Z,13.70
2022-10-19T00:11:45.955Z,13.60
2022-10-19T00:16:51.115Z,13.40
2022-10-19T00:21:56.305Z,13.30
2022-10-19T00:27:00.079Z,13.30
2022-10-19T00:32:03.890Z,13.30
2022-10-19T00:37:08.388Z,13.40
2022-10-19T00:42:12.231Z,13.40
2022-10-19T00:47:15.872Z,13.40
2022-10-19T00:52:22.641Z,13.30
2022-10-19T00:57:28.018Z,13.30
2022-10-19T01:02:32.530Z,13.20
2022-10-19T01:07:37.715Z,13.10
2022-10-19T01:12:53.169Z,13.20
2022-10-19T01:18:02.708Z,13.30
2022-10-19T01:23:32.013Z,13.40
2022-10-19T01:28:45.608Z,13.20
2022-10-19T01:33:52.075Z,13.30
2022-10-19T01:38:57.670Z,13.30
2022-10-19T01:44:02.903Z,13.00
2022-10-19T01:49:10.502Z,13.00
2022-10-19T01:54:15.310Z,12.90
2022-10-19T01:59:19.610Z,13.00
2022-10-19T02:04:49.395Z,12.90
2022-10-19T02:09:52.917Z,13.00
2022-10-19T02:14:59.506Z,12.80
2022-10-19T02:20:04.335Z,12.80
2022-10-19T02:25:08.316Z,12.90
2022-10-19T02:30:12.337Z,13.00
2022-10-19T02:35:17.776Z,12.90
2022-10-19T02:40:21.327Z,12.70
2022-10-19T02:45:27.072Z,12.80
2022-10-19T02:50:32.615Z,12.90
2022-10-19T02:55:35.806Z,12.80
2022-10-19T03:00:42.208Z,12.80
2022-10-19T03:05:46.967Z,12.80
2022-10-19T03:10:50.216Z,12.70
2022-10-19T03:15:53.538Z,12.80
2022-10-19T03:21:05.535Z,12.90
2022-10-19T03:26:12.147Z,13.00
2022-10-19T03:31:15.804Z,12.90
2022-10-19T03:36:22.223Z,13.00
2022-10-19T03:41:27.670Z,13.00
2022-10-19T03:46:30.783Z,13.00
2022-10-19T03:51:35.453Z,12.90
2022-10-19T03:56:38.642Z,13.00
2022-10-19T04:01:44.161Z,12.90
2022-10-19T04:06:50.078Z,12.90
2022-10-19T04:11:53.397Z,12.90
2022-10-19T04:16:56.601Z,12.80
2022-10-19T04:22:01.065Z,12.80
2022-10-19T04:27:04.623Z,12.80
2022-10-19T04:32:08.618Z,12.90
2022-10-19T04:37:13.170Z,12.90
2022-10-19T04:42:16.778Z,13.00
2022-10-19T04:47:20.788Z,13.20
2022-10-19T04:52:25.385Z,13.00
2022-10-19T04:57:28.671Z,13.10
2022-10-19T05:02:31.773Z,13.10
2022-10-19T05:07:38.577Z,13.10
2022-10-19T05:12:41.664Z,13.30
2022-10-19T05:17:45.407Z,13.20
2022-10-19T05:22:50.839Z,13.30
2022-10-19T05:27:54.356Z,13.20
2022-10-19T05:32:57.421Z,13.30
2022-10-19T05:38:01.912Z,13.20
2022-10-19T05:43:05.031Z,13.30
2022-10-19T05:48:08.194Z,13.30
2022-10-19T05:53:12.713Z,13.30
2022-10-19T05:58:15.824Z,13.40
2022-10-19T06:46:13.004Z,13.30
2022-10-19T07:08:01.703Z,13.50
2022-10-19T07:13:04.987Z,13.40
2022-10-19T07:18:08.348Z,13.50
2022-10-19T07:23:13.119Z,13.60
2022-10-19T07:28:16.248Z,13.40
2022-10-19T07:33:19.413Z,13.50
2022-10-19T07:38:23.908Z,13.50
2022-10-19T07:56:34.923Z,13.90
2022-10-19T08:01:41.912Z,13.90
2022-10-19T08:06:45.309Z,13.80
2022-10-19T08:11:49.865Z,13.70
2022-10-19T08:16:53.560Z,13.70
2022-10-19T08:21:56.842Z,13.80
2022-10-19T08:27:02.667Z,13.80
2022-10-19T08:32:06.870Z,13.80
2022-10-19T08:37:19.951Z,14.00
2022-10-19T08:42:38.470Z,14.10
2022-10-19T08:47:48.828Z,14.20
2022-10-19T08:52:56.189Z,14.00
2022-10-19T08:58:04.990Z,14.00
2022-10-19T09:03:20.076Z,14.00
2022-10-19T09:08:30.606Z,14.10
2022-10-19T09:13:47.216Z,13.90
2022-10-19T09:18:57.422Z,14.00
2022-10-19T09:24:06.815Z,14.20
2022-10-19T09:29:13.377Z,14.30
2022-10-19T09:34:18.401Z,14.60
2022-10-19T09:39:23.487Z,15.00
2022-10-19T09:44:32.974Z,14.90
2022-10-19T09:49:42.911Z,15.30
2022-10-19T09:54:47.257Z,15.50
2022-10-19T09:59:53.856Z,15.60
2022-10-19T10:05:31.441Z,15.90
2022-10-19T10:10:38.435Z,16.60
2022-10-19T10:15:45.006Z,16.70
2022-10-19T10:21:07.116Z,16.90
2022-10-19T10:26:21.530Z,17.10
2022-10-19T10:31:27.706Z,17.30
2022-10-19T10:36:34.616Z,17.20
2022-10-19T10:41:39.563Z,17.70
2022-10-19T10:46:46.240Z,18.30
2022-10-19T10:51:52.907Z,18.70
2022-10-19T10:57:04.398Z,18.70
2022-10-19T11:02:35.948Z,19.10
2022-10-19T11:07:43.121Z,19.80
2022-10-19T11:12:47.961Z,19.40
2022-10-19T11:18:03.150Z,19.30
2022-10-19T11:23:12.217Z,19.10
2022-10-19T11:28:25.268Z,19.50
2022-10-19T11:38:55.527Z,19.30
2022-10-19T11:44:15.417Z,19.50
2022-10-19T11:49:30.950Z,19.70
2022-10-19T11:54:40.459Z,18.60
2022-10-19T11:59:57.600Z,18.50
2022-10-19T12:05:13.337Z,19.00
2022-10-19T12:10:23.526Z,18.70
2022-10-19T12:15:30.660Z,19.10
2022-10-19T12:20:37.113Z,19.90
2022-10-19T12:25:40.241Z,21.00
2022-10-19T12:30:44.409Z,21.00
2022-10-19T12:36:05.386Z,21.50
2022-10-19T12:41:11.416Z,21.90
2022-10-19T12:46:19.127Z,22.10
2022-10-19T12:51:24.671Z,21.70
2022-10-19T12:56:28.330Z,22.40
2022-10-19T13:01:44.458Z,22.50
2022-10-19T13:06:50.596Z,22.60
2022-10-19T13:12:30.077Z,22.60
2022-10-19T13:17:43.858Z,22.90
2022-10-19T13:22:49.271Z,22.60
2022-10-19T13:27:53.587Z,22.20
2022-10-19T13:32:56.730Z,21.90
2022-10-19T13:38:26.877Z,22.20
2022-10-19T13:43:32.048Z,21.40
2022-10-19T13:48:40.039Z,22.00
2022-10-19T13:53:45.575Z,22.20
2022-10-19T13:59:28.829Z,23.20
2022-10-19T14:04:37.601Z,23.40
2022-10-19T14:10:04.694Z,22.60
2022-10-19T14:15:25.053Z,21.90
2022-10-19T14:20:30.778Z,21.50
2022-10-19T14:25:35.542Z,21.60
2022-10-19T14:30:40.181Z,22.40
2022-10-19T14:35:45.055Z,21.90
2022-10-19T14:40:50.390Z,20.90
2022-10-19T14:46:14.069Z,21.10
2022-10-19T14:51:23.193Z,21.60
2022-10-19T14:56:30.532Z,20.80
2022-10-19T15:01:36.464Z,21.60
2022-10-19T15:06:42.474Z,21.50
2022-10-19T15:11:49.817Z,21.10
2022-10-19T15:16:54.616Z,21.50
2022-10-19T15:22:17.430Z,20.60
2022-10-19T15:27:23.208Z,19.00
2022-10-19T15:32:33.769Z,17.40
2022-10-19T15:37:37.328Z,17.10
2022-10-19T15:42:44.553Z,16.60
2022-10-19T15:47:50.670Z,16.20
2022-10-19T15:52:54.742Z,16.00
2022-10-19T15:58:01.547Z,15.70
2022-10-19T16:03:05.197Z,16.10
2022-10-19T16:08:11.608Z,15.80
2022-10-19T16:13:17.561Z,15.60
2022-10-19T16:18:20.820Z,15.70
2022-10-19T16:23:26.470Z,15.80
2022-10-19T16:28:31.531Z,15.70
2022-10-19T16:33:35.077Z,15.50
2022-10-19T16:38:38.758Z,15.40
2022-10-19T16:43:43.710Z,15.60
2022-10-19T16:48:47.445Z,15.70
2022-10-19T16:53:51.901Z,15.30
2022-10-19T16:58:57.566Z,15.40
2022-10-19T17:04:01.173Z,15.60
2022-10-19T17:14:30.198Z,15.40
2022-10-19T17:19:33.585Z,15.60
2022-10-19T17:24:39.290Z,15.40
2022-10-19T17:29:44.148Z,15.20
2022-10-19T17:34:47.472Z,15.20
2022-10-19T17:39:53.409Z,15.30
2022-10-19T17:45:00.986Z,15.30
2022-10-19T17:50:04.225Z,15.10
2022-10-19T17:55:12.621Z,15.00
2022-10-19T18:00:18.015Z,14.80
2022-10-19T18:05:21.281Z,14.60
2022-10-19T18:10:26.087Z,14.50
2022-10-19T18:15:30.908Z,14.60
2022-10-19T18:20:34.636Z,14.80
2022-10-19T18:25:53.436Z,14.80
2022-10-19T18:31:07.536Z,14.80
2022-10-19T18:36:11.375Z,14.90
2022-10-19T18:41:18.391Z,14.80
2022-10-19T18:46:25.238Z,15.00
2022-10-19T18:51:31.903Z,15.10
2022-10-19T18:56:36.575Z,15.20
2022-10-19T19:01:41.256Z,15.20
2022-10-19T19:06:44.885Z,14.90
2022-10-19T19:11:48.228Z,14.80
2022-10-19T19:16:53.535Z,14.60
2022-10-19T19:21:56.954Z,14.60
2022-10-19T19:27:03.764Z,14.60
2022-10-19T19:32:09.532Z,14.50
2022-10-19T19:37:13.214Z,14.70
2022-10-19T19:42:46.206Z,14.60
2022-10-19T19:47:50.995Z,14.60
2022-10-19T19:52:54.740Z,14.50
2022-10-19T19:57:58.136Z,14.40
2022-10-19T20:03:03.211Z,14.20
2022-10-19T20:08:07.595Z,14.50
2022-10-19T20:13:11.543Z,14.20
2022-10-19T20:18:16.048Z,14.10
2022-10-19T20:23:19.349Z,14.10
2022-10-19T20:28:26.143Z,14.10
2022-10-19T20:33:31.982Z,13.90
2022-10-19T20:38:35.532Z,14.00
2022-10-19T20:49:12.748Z,14.00
2022-10-19T20:54:16.288Z,13.80
2022-10-19T20:59:22.347Z,13.60
2022-10-19T21:04:26.910Z,13.60
2022-10-19T21:09:30.092Z,13.50
2022-10-19T21:14:33.560Z,13.50
2022-10-19T21:19:38.584Z,13.50
2022-10-19T21:24:41.773Z,13.50
2022-10-19T21:29:45.444Z,13.40
2022-10-19T21:34:51.066Z,13.30
2022-10-19T21:39:55.587Z,13.40
2022-10-19T21:45:06.371Z,13.40
2022-10-19T21:50:22.794Z,13.30
2022-10-19T21:55:26.318Z,13.10
2022-10-19T22:00:29.671Z,13.00
2022-10-19T22:05:34.869Z,13.00
2022-10-19T22:10:39.069Z,13.00
2022-10-19T22:15:43.776Z,13.10
2022-10-19T22:20:48.526Z,13.10
2022-10-19T22:25:52.007Z,13.00
2022-10-19T22:30:55.661Z,13.10
2022-10-19T22:36:00.655Z,13.00
2022-10-19T22:41:05.185Z,13.00
2022-10-19T22:46:08.480Z,12.90
2022-10-19T22:51:13.125Z,12.90
2022-10-19T22:56:16.347Z,12.80
2022-10-19T23:01:19.579Z,12.80
2022-10-19T23:06:25.194Z,12.70
2022-10-19T23:11:28.779Z,12.70
2022-10-19T23:16:32.278Z,12.70
2022-10-19T23:21:36.769Z,12.60
2022-10-19T23:26:40.967Z,12.50
2022-10-19T23:31:45.015Z,12.50
2022-10-19T23:36:50.036Z,12.40
2022-10-19T23:41:53.702Z,12.40
2022-10-19T23:46:58.154Z,12.40
2022-10-19T23:52:03.213Z,12.30
2022-10-19T23:57:06.453Z,12.40
